createdAt,value
2023-04-13T00:00:31.159Z,7.20
2023-04-13T00:03:00.483Z,7.30
2023-04-13T00:05:29.597Z,8.30
2023-04-13T00:08:03.032Z,7.50
2023-04-13T00:10:36.140Z,7.20
2023-04-13T00:13:05.084Z,7.20
2023-04-13T00:15:34.778Z,7.10
2023-04-13T00:18:02.892Z,7.40
2023-04-13T00:20:31.104Z,7.00
2023-04-13T00:22:59.125Z,6.30
2023-04-13T00:25:27.573Z,5.80
2023-04-13T00:27:57.096Z,5.60
2023-04-13T00:30:25.053Z,7.10
2023-04-13T00:32:53.292Z,5.40
2023-04-13T00:35:25.335Z,5.40
2023-04-13T00:37:53.868Z,5.40
2023-04-13T00:40:21.933Z,5.30
2023-04-13T00:42:51.851Z,7.30
2023-04-13T00:45:21.568Z,5.50
2023-04-13T00:47:51.972Z,6.70
2023-04-13T00:50:21.680Z,5.30
2023-04-13T00:52:50.171Z,5.30
2023-04-13T00:55:21.418Z,5.40
2023-04-13T00:57:52.635Z,5.30
2023-04-13T01:00:24.772Z,5.30
2023-04-13T01:02:53.733Z,5.30
2023-04-13T01:05:23.025Z,5.30
2023-04-13T01:07:59.429Z,5.20
2023-04-13T01:10:34.464Z,5.20
2023-04-13T01:13:11.370Z,5.40
2023-04-13T01:15:46.314Z,5.20
2023-04-13T01:18:16.457Z,5.10
2023-04-13T01:20:47.557Z,5.20
2023-04-13T01:23:29.558Z,5.20
2023-04-13T01:26:00.555Z,5.10
2023-04-13T01:28:30.853Z,5.10
2023-04-13T01:31:00.502Z,6.70
2023-04-13T01:33:30.625Z,5.20
2023-04-13T01:36:00.724Z,5.20
2023-04-13T01:38:28.768Z,5.20
2023-04-13T01:40:57.317Z,5.20
2023-04-13T01:43:26.660Z,5.30
2023-04-13T01:46:01.516Z,5.30
2023-04-13T01:48:34.308Z,5.20
2023-04-13T01:51:09.001Z,5.20
2023-04-13T01:53:39.544Z,5.20
2023-04-13T01:56:09.207Z,5.20
2023-04-13T01:58:39.117Z,5.10
2023-04-13T02:01:08.943Z,5.20
2023-04-13T02:03:38.701Z,5.20
2023-04-13T02:06:07.478Z,5.20
2023-04-13T02:08:37.130Z,5.20
2023-04-13T02:11:05.668Z,5.20
2023-04-13T02:13:34.375Z,5.10
2023-04-13T02:16:02.328Z,5.20
2023-04-13T02:18:32.031Z,5.30
2023-04-13T02:21:03.078Z,5.10
2023-04-13T02:23:33.423Z,5.10
2023-04-13T02:26:01.572Z,5.10
2023-04-13T02:28:30.473Z,5.10
2023-04-13T02:31:00.104Z,5.10
2023-04-13T02:33:31.306Z,5.00
2023-04-13T02:36:02.591Z,5.00
2023-04-13T02:38:32.149Z,5.00
2023-04-13T02:41:03.029Z,5.00
2023-04-13T02:43:31.149Z,5.10
2023-04-13T02:45:59.648Z,5.00
2023-04-13T02:48:28.275Z,5.00
2023-04-13T02:50:56.335Z,5.00
2023-04-13T02:53:26.001Z,5.00
2023-04-13T02:55:54.909Z,5.40
2023-04-13T02:58:23.420Z,5.00
2023-04-13T03:00:51.415Z,5.00
2023-04-13T03:03:20.508Z,5.00
2023-04-13T03:05:50.341Z,5.00
2023-04-13T03:08:18.813Z,5.00
2023-04-13T03:10:48.214Z,4.90
2023-04-13T03:13:16.257Z,4.90
2023-04-13T03:15:44.338Z,5.10
2023-04-13T03:18:12.335Z,4.90
2023-04-13T03:20:40.231Z,4.90
2023-04-13T03:23:08.150Z,4.90
2023-04-13T03:25:36.138Z,4.90
2023-04-13T03:28:05.779Z,6.10
2023-04-13T03:30:33.665Z,5.00
2023-04-13T03:33:02.362Z,5.10
2023-04-13T03:35:30.501Z,5.10
2023-04-13T03:37:58.480Z,5.10
2023-04-13T03:40:27.591Z,5.10
2023-04-13T03:42:55.729Z,5.00
2023-04-13T03:45:25.061Z,5.00
2023-04-13T03:47:53.094Z,5.00
2023-04-13T03:50:21.335Z,4.90
2023-04-13T03:52:49.281Z,5.00
2023-04-13T03:55:18.252Z,5.00
2023-04-13T03:57:46.238Z,4.90
2023-04-13T04:00:15.850Z,4.90
2023-04-13T04:02:45.640Z,4.90
2023-04-13T04:05:13.826Z,4.90
2023-04-13T04:07:41.884Z,4.90
2023-04-13T04:10:10.528Z,4.90
2023-04-13T04:12:39.580Z,4.90
2023-04-13T04:15:27.510Z,4.90
2023-04-13T04:18:17.206Z,4.90
2023-04-13T04:20:45.401Z,4.90
2023-04-13T04:23:15.302Z,4.90
2023-04-13T04:25:43.239Z,4.90
2023-04-13T04:28:18.158Z,4.80
2023-04-13T04:30:53.908Z,4.80
2023-04-13T04:33:23.727Z,4.70
2023-04-13T04:35:52.477Z,4.70
2023-04-13T04:38:23.590Z,4.70
2023-04-13T04:40:57.446Z,4.70
2023-04-13T04:43:27.110Z,4.80
2023-04-13T04:45:57.635Z,4.70
2023-04-13T04:48:31.696Z,4.70
2023-04-13T04:51:00.030Z,4.70
2023-04-13T04:53:28.235Z,5.10
2023-04-13T04:55:56.143Z,4.80
2023-04-13T04:58:24.131Z,4.60
2023-04-13T05:00:53.225Z,4.70
2023-04-13T05:03:21.840Z,4.70
2023-04-13T05:05:51.164Z,4.70
2023-04-13T05:08:19.274Z,4.80
2023-04-13T05:10:47.378Z,4.90
2023-04-13T05:13:15.719Z,5.00
2023-04-13T05:15:43.719Z,5.00
2023-04-13T05:18:13.166Z,5.00
2023-04-13T05:20:41.594Z,5.10
2023-04-13T05:23:10.928Z,5.10
2023-04-13T05:25:39.521Z,5.10
2023-04-13T05:28:07.491Z,5.10
2023-04-13T05:30:35.513Z,5.10
2023-04-13T05:33:05.767Z,5.10
2023-04-13T05:35:33.791Z,5.10
2023-04-13T05:38:01.756Z,5.20
2023-04-13T05:40:33.698Z,5.60
2023-04-13T05:43:01.768Z,5.20
2023-04-13T05:45:29.938Z,5.20
2023-04-13T05:47:57.924Z,5.20
2023-04-13T05:50:25.950Z,5.20
2023-04-13T05:52:53.900Z,5.20
2023-04-13T05:55:23.610Z,5.20
2023-04-13T05:57:53.111Z,5.30
2023-04-13T06:00:23.031Z,5.30
2023-04-13T06:02:51.589Z,5.30
2023-04-13T06:05:20.974Z,5.40
2023-04-13T06:07:50.457Z,5.40
2023-04-13T06:10:19.506Z,3.90
2023-04-13T06:12:48.899Z,5.50
2023-04-13T06:15:18.369Z,5.60
2023-04-13T06:17:46.514Z,5.60
2023-04-13T06:20:15.379Z,5.70
2023-04-13T06:22:43.407Z,7.40
2023-04-13T06:25:12.229Z,7.00
2023-04-13T06:27:40.558Z,6.70
2023-04-13T06:30:10.312Z,7.90
2023-04-13T06:32:39.824Z,6.10
2023-04-13T06:35:09.749Z,6.30
2023-04-13T06:37:40.410Z,6.30
2023-04-13T06:43:29.031Z,6.40
2023-04-13T06:46:01.787Z,6.50
2023-04-13T06:48:31.789Z,6.60
2023-04-13T06:51:00.283Z,8.10
2023-04-13T06:53:28.303Z,6.60
2023-04-13T06:55:56.233Z,7.40
2023-04-13T06:58:24.313Z,8.20
2023-04-13T07:00:52.485Z,6.50
2023-04-13T07:03:20.715Z,6.50
2023-04-13T07:05:50.416Z,6.40
2023-04-13T07:08:19.489Z,6.40
2023-04-13T07:10:48.058Z,6.50
2023-04-13T07:13:16.393Z,8.50
2023-04-13T07:15:44.794Z,6.50
2023-04-13T07:18:13.006Z,7.90
2023-04-13T07:20:41.922Z,6.70
2023-04-13T07:23:12.036Z,8.20
2023-04-13T07:25:40.413Z,8.10
2023-04-13T07:28:08.611Z,8.50
2023-04-13T07:30:36.899Z,8.60
2023-04-13T07:33:05.120Z,8.20
2023-04-13T07:35:33.331Z,8.60
2023-04-13T07:38:01.497Z,8.70
2023-04-13T07:40:31.645Z,8.70
2023-04-13T07:42:59.789Z,8.70
2023-04-13T07:45:30.621Z,8.70
2023-04-13T07:47:58.850Z,8.50
2023-04-13T07:50:27.561Z,8.60
2023-04-13T07:52:56.767Z,8.40
2023-04-13T07:55:25.165Z,10.20
2023-04-13T07:57:56.197Z,8.90
2023-04-13T08:00:24.746Z,10.60
2023-04-13T08:02:55.427Z,8.70
2023-04-13T08:05:25.021Z,10.80
2023-04-13T08:07:53.523Z,10.50
2023-04-13T08:10:21.798Z,10.60
2023-04-13T08:12:50.296Z,8.80
2023-04-13T08:15:20.129Z,8.90
2023-04-13T08:17:48.424Z,9.60
2023-04-13T08:20:16.762Z,10.50
2023-04-13T08:22:46.724Z,9.40
2023-04-13T08:25:15.539Z,10.20
2023-04-13T08:27:44.264Z,10.90
2023-04-13T08:30:12.898Z,10.30
2023-04-13T08:32:42.504Z,10.20
2023-04-13T08:35:11.760Z,11.40
2023-04-13T08:37:40.581Z,10.20
2023-04-13T08:40:12.178Z,10.70
2023-04-13T08:42:40.328Z,11.00
2023-04-13T08:45:09.497Z,11.40
2023-04-13T08:47:37.843Z,11.70
2023-04-13T08:50:10.481Z,11.90
2023-04-13T08:52:42.508Z,12.20
2023-04-13T08:55:11.315Z,12.50
2023-04-13T08:57:42.176Z,12.50
2023-04-13T09:00:16.602Z,13.20
2023-04-13T09:03:00.402Z,12.80
2023-04-13T09:05:34.761Z,14.70
2023-04-13T09:08:04.987Z,13.60
2023-04-13T09:10:33.355Z,12.10
2023-04-13T09:13:01.916Z,13.10
2023-04-13T09:15:32.575Z,11.60
2023-04-13T09:18:10.299Z,12.30
2023-04-13T09:20:40.717Z,12.80
2023-04-13T09:23:16.460Z,12.00
2023-04-13T09:25:48.467Z,13.90
2023-04-13T09:28:21.346Z,11.70
2023-04-13T09:30:49.492Z,12.10
2023-04-13T09:33:18.820Z,13.60
2023-04-13T09:35:48.479Z,11.90
2023-04-13T09:38:17.153Z,12.20
2023-04-13T09:40:54.191Z,11.30
2023-04-13T09:43:22.464Z,12.40
2023-04-13T09:45:50.938Z,13.00
2023-04-13T09:48:20.726Z,12.00
2023-04-13T09:51:01.281Z,12.20
2023-04-13T09:53:40.487Z,11.90
2023-04-13T09:56:08.774Z,12.00
2023-04-13T09:58:42.646Z,12.30
2023-04-13T10:01:11.299Z,13.90
2023-04-13T10:03:40.053Z,12.00
2023-04-13T10:06:10.330Z,12.20
2023-04-13T10:08:39.313Z,12.20
2023-04-13T10:11:14.611Z,12.10
2023-04-13T10:13:48.968Z,12.30
2023-04-13T10:16:44.267Z,10.70
2023-04-13T10:19:15.166Z,12.50
2023-04-13T10:21:48.579Z,12.00
2023-04-13T10:24:17.213Z,11.70
2023-04-13T10:26:45.349Z,12.20
2023-04-13T10:29:14.856Z,11.70
2023-04-13T10:31:46.776Z,12.40
2023-04-13T10:34:25.840Z,13.80
2023-04-13T10:36:58.313Z,12.60
2023-04-13T10:39:27.757Z,13.60
2023-04-13T10:42:03.765Z,12.80
2023-04-13T10:44:42.615Z,13.10
2023-04-13T10:47:11.298Z,12.40
2023-04-13T10:49:40.985Z,12.70
2023-04-13T10:52:11.539Z,12.10
2023-04-13T10:54:40.626Z,12.20
2023-04-13T10:57:11.155Z,13.00
2023-04-13T10:59:57.181Z,13.20
2023-04-13T11:02:27.717Z,13.40
2023-04-13T11:04:56.095Z,14.40
2023-04-13T11:07:26.868Z,14.80
2023-04-13T11:10:02.917Z,14.70
2023-04-13T11:12:31.418Z,14.60
2023-04-13T11:15:01.255Z,13.70
2023-04-13T11:17:29.828Z,13.40
2023-04-13T11:19:58.620Z,13.00
2023-04-13T11:22:28.773Z,15.20
2023-04-13T11:25:08.560Z,12.90
2023-04-13T11:27:37.960Z,12.80
2023-04-13T11:30:09.915Z,12.80
2023-04-13T11:32:42.978Z,12.50
2023-04-13T11:35:12.604Z,12.60
2023-04-13T11:37:43.258Z,12.40
2023-04-13T11:40:14.861Z,12.40
2023-04-13T11:42:45.917Z,12.00
2023-04-13T11:45:15.725Z,11.80
2023-04-13T11:47:44.082Z,12.90
2023-04-13T11:50:15.729Z,12.40
2023-04-13T11:52:46.584Z,12.00
2023-04-13T11:55:23.254Z,12.20
2023-04-13T11:57:53.022Z,12.30
2023-04-13T12:00:26.385Z,12.20
2023-04-13T12:05:29.075Z,12.20
2023-04-13T12:08:00.386Z,11.80
2023-04-13T12:10:39.020Z,12.20
2023-04-13T12:16:02.355Z,11.90
2023-04-13T12:18:37.407Z,13.20
2023-04-13T12:21:06.452Z,12.00
2023-04-13T12:23:35.886Z,12.10
2023-04-13T12:26:25.880Z,12.80
2023-04-13T12:28:57.064Z,12.60
2023-04-13T12:31:25.340Z,11.80
2023-04-13T12:33:53.316Z,12.60
2023-04-13T12:36:21.231Z,12.00
2023-04-13T12:38:50.629Z,11.90
2023-04-13T12:41:18.523Z,11.60
2023-04-13T12:43:46.591Z,11.60
2023-04-13T12:46:14.738Z,14.20
2023-04-13T12:48:42.716Z,11.40
2023-04-13T12:51:10.776Z,12.70
2023-04-13T12:53:38.949Z,11.30
2023-04-13T12:56:09.032Z,11.40
2023-04-13T12:58:36.961Z,11.10
2023-04-13T13:01:05.137Z,10.90
2023-04-13T13:03:33.300Z,10.70
2023-04-13T13:06:01.243Z,10.70
2023-04-13T13:08:29.787Z,10.50
2023-04-13T13:10:58.890Z,10.70
2023-04-13T13:13:28.314Z,10.80
2023-04-13T13:15:56.266Z,10.70
2023-04-13T13:18:26.705Z,10.80
2023-04-13T13:21:00.498Z,11.90
2023-04-13T13:23:28.447Z,10.70
2023-04-13T13:26:17.850Z,10.80
2023-04-13T13:28:45.593Z,11.70
2023-04-13T13:31:13.567Z,10.70
2023-04-13T13:33:41.610Z,10.90
2023-04-13T13:36:09.718Z,11.10
2023-04-13T13:38:37.668Z,10.90
2023-04-13T13:41:06.365Z,10.80
2023-04-13T13:43:34.340Z,10.80
2023-04-13T13:46:05.524Z,10.80
2023-04-13T13:48:33.813Z,10.60
2023-04-13T13:51:06.897Z,11.10
2023-04-13T13:53:35.547Z,10.40
2023-04-13T13:56:04.774Z,10.30
2023-04-13T13:58:33.015Z,10.60
2023-04-13T14:01:01.016Z,10.20
2023-04-13T14:03:30.493Z,10.20
2023-04-13T14:05:58.549Z,10.40
2023-04-13T14:08:26.708Z,10.50
2023-04-13T14:10:54.736Z,10.10
2023-04-13T14:13:23.284Z,10.00
2023-04-13T14:15:51.879Z,10.20
2023-04-13T14:18:20.022Z,10.20
2023-04-13T14:20:49.328Z,10.00
2023-04-13T14:23:17.693Z,10.10
2023-04-13T14:25:45.913Z,10.10
2023-04-13T14:28:14.500Z,10.00
2023-04-13T14:30:42.685Z,10.00
2023-04-13T14:33:13.579Z,10.90
2023-04-13T14:35:41.730Z,11.40
2023-04-13T14:38:11.487Z,9.90
2023-04-13T14:40:39.997Z,9.90
2023-04-13T14:43:08.066Z,10.60
2023-04-13T14:45:36.028Z,9.90
2023-04-13T14:48:05.206Z,12.30
2023-04-13T14:50:33.500Z,10.00
2023-04-13T14:53:04.518Z,11.60
2023-04-13T14:55:33.991Z,11.40
2023-04-13T14:58:03.453Z,10.20
2023-04-13T15:00:39.582Z,11.40
2023-04-13T15:03:08.369Z,12.60
2023-04-13T15:05:38.629Z,10.30
2023-04-13T15:08:07.580Z,12.00
2023-04-13T15:10:37.086Z,12.10
2023-04-13T15:13:06.430Z,11.00
2023-04-13T15:15:35.953Z,10.00
2023-04-13T15:18:05.148Z,10.10
2023-04-13T15:20:33.258Z,10.00
2023-04-13T15:23:01.459Z,10.00
2023-04-13T15:25:29.486Z,10.10
2023-04-13T15:27:59.584Z,10.10
2023-04-13T15:30:28.810Z,10.30
2023-04-13T15:32:58.055Z,10.10
2023-04-13T15:35:27.296Z,10.20
2023-04-13T15:37:55.856Z,10.20
2023-04-13T15:40:25.868Z,10.20
2023-04-13T15:42:54.066Z,10.20
2023-04-13T15:45:23.403Z,10.20
2023-04-13T15:47:51.630Z,10.10
2023-04-13T15:50:19.924Z,11.30
2023-04-13T15:52:47.934Z,10.00
2023-04-13T15:55:15.852Z,11.20
2023-04-13T15:57:43.846Z,10.00
2023-04-13T16:00:12.769Z,9.90
2023-04-13T16:02:42.260Z,9.70
2023-04-13T16:05:10.501Z,9.60
2023-04-13T16:07:38.588Z,9.80
2023-04-13T16:10:08.132Z,11.00
2023-04-13T16:12:38.872Z,9.30
2023-04-13T16:15:07.862Z,11.70
2023-04-13T16:17:40.300Z,9.20
2023-04-13T16:20:19.702Z,11.80
2023-04-13T16:22:50.573Z,9.30
2023-04-13T16:25:19.542Z,9.40
2023-04-13T16:27:48.853Z,9.40
2023-04-13T16:30:18.149Z,9.40
2023-04-13T16:32:47.013Z,9.40
2023-04-13T16:35:16.958Z,9.40
2023-04-13T16:37:45.258Z,9.50
2023-04-13T16:40:15.218Z,9.40
2023-04-13T16:42:43.948Z,9.30
2023-04-13T16:45:14.708Z,9.40
2023-04-13T16:47:43.349Z,9.20
2023-04-13T16:50:12.437Z,9.20
2023-04-13T16:52:42.208Z,9.10
2023-04-13T16:55:14.202Z,9.10
2023-04-13T16:57:42.896Z,9.00
2023-04-13T17:00:12.062Z,9.00
2023-04-13T17:02:41.119Z,9.00
2023-04-13T17:05:10.872Z,8.90
2023-04-13T17:07:41.488Z,8.90
2023-04-13T17:10:12.387Z,8.90
2023-04-13T17:12:40.736Z,8.80
2023-04-13T17:15:10.065Z,8.80
2023-04-13T17:17:38.745Z,8.60
2023-04-13T17:20:08.401Z,8.60
2023-04-13T17:22:36.454Z,8.50
2023-04-13T17:25:06.897Z,8.50
2023-04-13T17:27:34.963Z,8.50
2023-04-13T17:30:03.610Z,8.50
2023-04-13T17:32:31.668Z,8.40
2023-04-13T17:34:59.651Z,8.40
2023-04-13T17:37:29.417Z,8.30
2023-04-13T17:39:57.446Z,8.30
2023-04-13T17:42:28.265Z,8.20
2023-04-13T17:44:56.186Z,8.10
2023-04-13T17:47:25.583Z,8.10
2023-04-13T17:49:53.864Z,8.10
2023-04-13T17:52:21.905Z,8.00
2023-04-13T17:54:49.899Z,8.00
2023-04-13T17:57:17.908Z,7.90
2023-04-13T17:59:47.501Z,8.10
2023-04-13T18:02:15.491Z,7.80
2023-04-13T18:04:43.465Z,7.70
2023-04-13T18:07:11.392Z,7.70
2023-04-13T18:09:39.749Z,7.60
2023-04-13T18:12:08.079Z,7.60
2023-04-13T18:14:36.308Z,7.50
2023-04-13T18:17:05.806Z,7.50
2023-04-13T18:19:34.626Z,7.40
2023-04-13T18:22:02.585Z,7.40
2023-04-13T18:24:30.776Z,7.30
2023-04-13T18:26:58.755Z,7.30
2023-04-13T18:29:26.781Z,7.20
2023-04-13T18:31:54.782Z,7.10
2023-04-13T18:34:24.041Z,8.20
2023-04-13T18:36:52.131Z,7.00
2023-04-13T18:39:20.082Z,7.00
2023-04-13T18:41:48.003Z,6.90
2023-04-13T18:44:15.870Z,6.90
2023-04-13T18:46:43.883Z,6.80
2023-04-13T18:49:11.794Z,6.80
2023-04-13T18:51:41.047Z,6.80
2023-04-13T18:54:09.128Z,6.70
2023-04-13T18:56:37.118Z,6.70
2023-04-13T18:59:05.398Z,6.60
2023-04-13T19:01:33.415Z,6.60
2023-04-13T19:04:02.603Z,6.50
2023-04-13T19:06:30.977Z,6.50
2023-04-13T19:09:00.227Z,6.40
2023-04-13T19:11:28.294Z,6.40
2023-04-13T19:13:56.806Z,6.40
2023-04-13T19:16:26.481Z,6.40
2023-04-13T19:18:54.662Z,6.40
2023-04-13T19:21:24.025Z,6.30
2023-04-13T19:23:52.885Z,6.30
2023-04-13T19:26:22.337Z,6.20
2023-04-13T19:28:50.475Z,6.20
2023-04-13T19:31:18.704Z,6.20
2023-04-13T19:33:48.811Z,6.20
2023-04-13T19:36:17.144Z,6.20
2023-04-13T19:38:45.390Z,6.20
2023-04-13T19:41:14.172Z,6.10
2023-04-13T19:43:43.544Z,6.10
2023-04-13T19:46:11.515Z,6.60
2023-04-13T19:48:40.286Z,6.10
2023-04-13T19:51:08.228Z,6.10
2023-04-13T19:53:38.036Z,6.10
2023-04-13T19:56:06.457Z,6.20
2023-04-13T19:58:34.545Z,6.20
2023-04-13T20:01:06.548Z,6.20
2023-04-13T20:03:35.895Z,6.20
2023-04-13T20:06:03.997Z,6.20
2023-04-13T20:08:32.155Z,6.10
2023-04-13T20:11:00.170Z,6.20
2023-04-13T20:13:28.183Z,6.10
2023-04-13T20:15:56.255Z,6.10
2023-04-13T20:18:25.620Z,6.10
2023-04-13T20:20:53.572Z,6.10
2023-04-13T20:23:21.534Z,6.10
2023-04-13T20:25:49.518Z,6.10
2023-04-13T20:28:17.909Z,6.10
2023-04-13T20:30:45.920Z,6.10
2023-04-13T20:33:14.072Z,6.10
2023-04-13T20:35:43.518Z,6.10
2023-04-13T20:38:14.587Z,6.20
2023-04-13T20:40:45.625Z,6.10
2023-04-13T20:43:15.573Z,6.30
2023-04-13T20:45:45.220Z,6.20
2023-04-13T20:50:48.036Z,4.70
2023-04-13T20:53:17.533Z,6.10
2023-04-13T20:55:45.615Z,6.10
2023-04-13T20:58:13.547Z,6.20
2023-04-13T21:00:43.737Z,6.90
2023-04-13T21:03:12.482Z,7.70
2023-04-13T21:05:40.737Z,6.10
2023-04-13T21:08:10.016Z,6.10
2023-04-13T21:10:38.004Z,6.10
2023-04-13T21:13:06.379Z,6.10
2023-04-13T21:15:34.430Z,6.10
2023-04-13T21:18:02.410Z,6.10
2023-04-13T21:20:30.529Z,6.10
2023-04-13T21:22:58.645Z,6.00
2023-04-13T21:25:28.203Z,6.10
2023-04-13T21:27:56.133Z,6.10
2023-04-13T21:30:24.105Z,6.00
2023-04-13T21:32:52.138Z,6.00
2023-04-13T21:35:20.257Z,5.90
2023-04-13T21:37:48.245Z,5.90
2023-04-13T21:40:18.200Z,5.90
2023-04-13T21:42:47.558Z,5.90
2023-04-13T21:45:15.619Z,5.80
2023-04-13T21:47:43.775Z,5.90
2023-04-13T21:50:12.165Z,5.80
2023-04-13T21:52:40.151Z,5.80
2023-04-13T21:55:11.201Z,5.70
2023-04-13T21:57:39.116Z,5.70
2023-04-13T22:00:11.276Z,5.70
2023-04-13T22:02:39.547Z,5.70
2023-04-13T22:05:09.303Z,5.70
2023-04-13T22:07:42.860Z,5.70
2023-04-13T22:10:12.014Z,5.90
2023-04-13T22:12:41.134Z,5.60
2023-04-13T22:15:11.803Z,5.60
2023-04-13T22:17:39.776Z,5.60
2023-04-13T22:20:09.176Z,5.60
2023-04-13T22:22:37.202Z,5.50
2023-04-13T22:25:05.746Z,5.50
2023-04-13T22:27:33.880Z,5.50
2023-04-13T22:30:02.034Z,5.60
2023-04-13T22:32:31.987Z,5.50
2023-04-13T22:35:00.744Z,5.50
2023-04-13T22:37:32.865Z,5.50
2023-04-13T22:40:01.736Z,5.50
2023-04-13T22:42:29.796Z,5.40
2023-04-13T22:44:58.149Z,5.40
2023-04-13T22:47:26.299Z,5.40
2023-04-13T22:49:55.814Z,5.30
2023-04-13T22:52:23.711Z,5.70
2023-04-13T22:54:51.594Z,5.50
2023-04-13T22:57:19.681Z,5.40
2023-04-13T22:59:47.665Z,5.20
2023-04-13T23:02:15.759Z,5.20
2023-04-13T23:04:43.918Z,5.60
2023-04-13T23:07:13.325Z,5.20
2023-04-13T23:09:41.410Z,5.20
2023-04-13T23:12:09.583Z,5.20
2023-04-13T23:14:37.480Z,5.10
2023-04-13T23:17:05.408Z,5.10
2023-04-13T23:19:33.332Z,5.10
2023-04-13T23:22:01.383Z,5.10
2023-04-13T23:24:30.755Z,5.00
2023-04-13T23:26:59.106Z,5.00
2023-04-13T23:29:27.057Z,5.00
2023-04-13T23:31:57.080Z,5.90
2023-04-13T23:34:25.068Z,5.40
2023-04-13T23:36:53.011Z,5.00
2023-04-13T23:39:22.194Z,5.40
2023-04-13T23:41:51.475Z,5.00
2023-04-13T23:44:19.552Z,5.00
2023-04-13T23:46:47.580Z,5.00
2023-04-13T23:49:15.575Z,5.00
2023-04-13T23:51:43.605Z,5.00
2023-04-13T23:54:11.943Z,5.00
2023-04-13T23:56:39.931Z,5.00
2023-04-13T23:59:09.360Z,4.90
